Time;durP1;ratioP1;P1;durP2;ratioP2;P2;SDS_P1;SDS_P2;PMS_P1;PMS_P2;Temp;Humidity;BMP_temperature;BMP_pressure;BME280_temperature;BME280_humidity;BME280_pressure;Samples;Min_cycle;Max_cycle;Signal;HPM_P1;HPM_P2
2023/07/07 00:00:55;;;;;;;7.78;3.03;;;13.90;99.90;;;;;;5116837;28;20028;-73
2023/07/07 00:03:20;;;;;;;5.20;2.58;;;13.80;99.90;;;;;;5116676;28;20031;-73
2023/07/07 00:05:47;;;;;;;3.95;2.53;;;13.70;99.90;;;;;;5116826;28;20062;-73
2023/07/07 00:08:13;;;;;;;4.85;2.95;;;13.70;99.90;;;;;;5116987;28;20047;-72
2023/07/07 00:10:42;;;;;;;4.57;2.72;;;13.70;99.90;;;;;;5116649;28;20034;-73
2023/07/07 00:13:13;;;;;;;5.53;3.20;;;13.80;99.90;;;;;;5116840;28;20023;-73
2023/07/07 00:15:44;;;;;;;4.82;2.88;;;13.90;99.90;;;;;;5117152;28;20046;-73
2023/07/07 00:18:17;;;;;;;6.00;2.95;;;13.90;99.90;;;;;;5116409;28;20520;-73
2023/07/07 00:20:43;;;;;;;4.40;2.70;;;14.00;99.90;;;;;;5116659;28;20496;-73
2023/07/07 00:23:10;;;;;;;5.18;3.20;;;14.00;99.90;;;;;;5116409;28;20024;-73
2023/07/07 00:25:36;;;;;;;5.00;3.10;;;14.10;99.90;;;;;;5116376;28;20043;-73
2023/07/07 00:28:01;;;;;;;5.30;2.75;;;14.10;99.90;;;;;;5116625;28;20504;-73
2023/07/07 00:30:27;;;;;;;5.30;2.90;;;14.10;99.90;;;;;;5116190;28;20070;-73
2023/07/07 00:32:53;;;;;;;5.18;2.80;;;14.00;99.90;;;;;;5116501;28;20100;-73
2023/07/07 00:35:18;;;;;;;6.43;3.00;;;14.00;99.90;;;;;;5098152;28;20481;-73
2023/07/07 00:37:44;;;;;;;4.65;2.78;;;13.90;99.90;;;;;;5116089;28;20062;-73
2023/07/07 00:40:10;;;;;;;7.18;4.03;;;13.90;99.90;;;;;;5116056;28;20032;-73
2023/07/07 00:42:36;;;;;;;7.35;4.03;;;13.90;99.90;;;;;;5115995;28;20024;-73
2023/07/07 00:45:19;;;;;;;13.02;7.32;;;13.80;99.90;;;;;;5116307;28;20106;-73
2023/07/07 00:48:01;;;;;;;14.05;5.80;;;13.90;99.90;;;;;;5116023;28;20024;-73
2023/07/07 00:50:30;;;;;;;9.02;4.47;;;13.90;99.90;;;;;;5116489;28;20427;-73
2023/07/07 00:52:56;;;;;;;6.32;3.65;;;13.90;99.90;;;;;;5097519;28;20035;-73
2023/07/07 00:55:44;;;;;;;4.88;2.92;;;13.90;99.90;;;;;;5115807;28;20031;-73
2023/07/07 00:58:16;;;;;;;5.38;2.85;;;13.90;99.90;;;;;;5115768;28;20032;-73
2023/07/07 01:00:45;;;;;;;4.45;2.70;;;13.90;99.90;;;;;;5115691;28;20557;-73
2023/07/07 01:03:22;;;;;;;4.30;2.50;;;13.90;99.90;;;;;;5115157;28;20023;-73
2023/07/07 01:05:48;;;;;;;7.10;2.95;;;13.90;99.90;;;;;;5097044;28;20385;-73
2023/07/07 01:08:14;;;;;;;4.82;2.78;;;13.80;99.90;;;;;;5115496;28;20034;-73
2023/07/07 01:10:40;;;;;;;5.38;2.47;;;13.70;99.90;;;;;;5115728;28;20031;-73
2023/07/07 01:13:06;;;;;;;4.43;2.50;;;13.70;99.90;;;;;;5115530;28;20035;-73
2023/07/07 01:15:37;;;;;;;4.07;2.42;;;13.60;99.90;;;;;;5115718;28;20034;-73
2023/07/07 01:18:25;;;;;;;5.07;2.47;;;13.70;99.90;;;;;;5115585;28;20107;-73
2023/07/07 01:21:20;;;;;;;4.43;2.55;;;13.70;99.90;;;;;;5115390;28;20038;-73
2023/07/07 01:24:04;;;;;;;4.13;2.50;;;13.70;99.90;;;;;;5097483;28;20085;-73
2023/07/07 01:26:36;;;;;;;4.55;2.60;;;13.70;99.90;;;;;;5115167;28;20016;-73
2023/07/07 01:29:14;;;;;;;4.07;2.42;;;13.70;99.90;;;;;;5115110;28;20055;-73
2023/07/07 01:31:46;;;;;;;4.60;2.67;;;13.70;99.90;;;;;;5115030;28;20031;-73
2023/07/07 01:34:15;;;;;;;4.88;2.97;;;13.70;99.90;;;;;;5115098;28;20078;-73
2023/07/07 01:36:40;;;;;;;4.60;2.25;;;13.60;99.90;;;;;;5114974;28;20062;-73
2023/07/07 01:39:07;;;;;;;4.65;2.85;;;13.60;99.90;;;;;;5115048;28;20055;-73
2023/07/07 01:41:56;;;;;;;5.43;2.88;;;13.60;99.90;;;;;;5097364;28;20032;-73
2023/07/07 01:44:44;;;;;;;5.65;2.85;;;13.60;99.90;;;;;;5115060;28;20416;-73
2023/07/07 01:47:23;;;;;;;4.43;2.55;;;13.60;99.90;;;;;;5114857;28;20019;-73
2023/07/07 01:49:55;;;;;;;4.43;2.53;;;13.50;99.90;;;;;;5115021;28;20023;-73
2023/07/07 01:52:32;;;;;;;3.90;2.60;;;13.50;99.90;;;;;;5096393;28;20492;-73
2023/07/07 01:55:04;;;;;;;4.60;2.42;;;13.50;99.90;;;;;;5115018;28;20023;-73
2023/07/07 01:57:31;;;;;;;5.35;2.88;;;13.40;99.90;;;;;;5096317;28;20583;-73
2023/07/07 01:59:57;;;;;;;5.43;3.60;;;13.40;99.90;;;;;;5114503;28;20047;-73
2023/07/07 02:02:23;;;;;;;12.25;8.20;;;13.40;99.90;;;;;;5114400;28;20465;-73
2023/07/07 02:04:50;;;;;;;13.35;7.93;;;13.30;99.90;;;;;;5114390;28;20028;-73
2023/07/07 02:07:16;;;;;;;11.85;7.20;;;13.20;99.90;;;;;;5114395;28;20059;-73
2023/07/07 02:09:41;;;;;;;8.90;5.47;;;13.20;99.90;;;;;;5114698;28;20059;-73
2023/07/07 02:12:07;;;;;;;8.15;4.45;;;13.10;99.90;;;;;;5114304;28;20032;-73
2023/07/07 02:14:33;;;;;;;7.00;4.00;;;13.10;99.90;;;;;;5114024;28;20096;-73
2023/07/07 02:16:59;;;;;;;4.75;2.95;;;13.10;99.90;;;;;;5114240;28;20024;-73
2023/07/07 02:19:24;;;;;;;9.45;3.40;;;13.20;99.90;;;;;;5096440;28;20027;-73
2023/07/07 02:21:51;;;;;;;6.13;3.17;;;13.20;99.90;;;;;;5114455;28;20470;-73
2023/07/07 02:24:17;;;;;;;4.72;2.70;;;13.20;99.90;;;;;;5115169;28;20039;-73
2023/07/07 02:26:42;;;;;;;4.40;2.65;;;13.10;99.90;;;;;;5114569;28;20388;-73
2023/07/07 02:29:08;;;;;;;5.30;2.85;;;13.00;99.90;;;;;;5114222;28;20433;-73
2023/07/07 02:31:33;;;;;;;6.28;2.65;;;12.90;99.90;;;;;;5114114;28;20564;-73
2023/07/07 02:33:59;;;;;;;4.65;2.78;;;12.80;99.90;;;;;;5114015;28;20028;-73
2023/07/07 02:36:25;;;;;;;4.28;2.90;;;12.80;99.90;;;;;;5114272;28;20111;-73
2023/07/07 02:38:53;;;;;;;6.72;2.83;;;12.80;99.90;;;;;;5095766;28;20088;-73
2023/07/07 02:41:19;;;;;;;6.47;3.55;;;12.80;99.90;;;;;;5113911;28;20030;-73
2023/07/07 02:43:45;;;;;;;6.47;3.97;;;12.70;99.90;;;;;;5114081;28;20024;-73
2023/07/07 02:46:11;;;;;;;5.22;3.35;;;12.70;99.90;;;;;;5113846;28;20039;-73
2023/07/07 02:48:37;;;;;;;5.28;3.00;;;12.60;99.90;;;;;;5113844;28;20031;-73
2023/07/07 02:51:06;;;;;;;5.68;3.60;;;12.70;99.90;;;;;;5113811;28;20028;-73
2023/07/07 02:53:34;;;;;;;5.35;3.17;;;12.70;99.90;;;;;;5113700;28;20055;-73
2023/07/07 02:56:01;;;;;;;7.28;2.65;;;12.70;99.90;;;;;;5114068;28;20381;-73
2023/07/07 02:58:26;;;;;;;5.97;3.20;;;12.70;99.90;;;;;;5113683;28;20031;-73
2023/07/07 03:00:53;;;;;;;5.43;3.50;;;12.60;99.90;;;;;;5113718;28;20035;-73
2023/07/07 03:03:19;;;;;;;5.72;2.83;;;12.50;99.90;;;;;;5113845;28;20023;-73
2023/07/07 03:05:45;;;;;;;4.97;2.90;;;12.50;99.90;;;;;;5113580;28;20492;-73
2023/07/07 03:08:12;;;;;;;5.38;3.03;;;12.40;99.90;;;;;;5113631;28;20027;-73
2023/07/07 03:10:39;;;;;;;5.38;3.00;;;12.40;99.90;;;;;;5113613;28;20031;-73
2023/07/07 03:13:06;;;;;;;7.47;3.45;;;12.50;99.90;;;;;;5095326;28;20027;-73
2023/07/07 03:15:39;;;;;;;5.78;3.25;;;12.50;99.90;;;;;;5113549;28;20028;-73
2023/07/07 03:18:09;;;;;;;5.30;3.00;;;12.60;99.90;;;;;;5113724;28;20453;-73
2023/07/07 03:20:37;;;;;;;4.77;3.00;;;12.60;99.90;;;;;;5095632;28;20103;-73
2023/07/07 03:23:03;;;;;;;5.68;2.60;;;12.60;99.90;;;;;;5113431;28;20731;-73
2023/07/07 03:25:29;;;;;;;4.82;2.75;;;12.60;99.90;;;;;;5113436;28;20047;-73
2023/07/07 03:27:55;;;;;;;5.47;2.40;;;12.60;99.90;;;;;;5115716;28;20027;-73
2023/07/07 03:30:21;;;;;;;5.43;3.15;;;12.60;99.90;;;;;;5099666;28;20088;-73
2023/07/07 03:32:47;;;;;;;5.72;2.40;;;12.60;99.90;;;;;;5117847;28;20052;-72
2023/07/07 03:35:12;;;;;;;6.10;2.10;;;12.60;99.90;;;;;;5117406;28;20036;-71
2023/07/07 03:37:38;;;;;;;4.95;2.55;;;12.60;99.90;;;;;;5098925;28;20052;-71
2023/07/07 03:40:06;;;;;;;4.75;2.80;;;12.60;99.90;;;;;;5117567;28;20035;-71
2023/07/07 03:42:32;;;;;;;4.40;2.63;;;12.60;99.90;;;;;;5117196;28;20024;-71
2023/07/07 03:44:59;;;;;;;4.75;2.50;;;12.60;99.90;;;;;;5098953;28;20020;-72
2023/07/07 03:47:25;;;;;;;6.78;2.90;;;12.50;99.90;;;;;;5117082;28;20488;-71
2023/07/07 03:49:51;;;;;;;5.22;2.70;;;12.50;99.90;;;;;;5117335;28;20028;-70
2023/07/07 03:52:17;;;;;;;7.80;3.03;;;12.40;99.90;;;;;;5117389;28;20024;-71
2023/07/07 03:54:43;;;;;;;4.63;2.50;;;12.40;99.90;;;;;;5117205;28;20020;-71
2023/07/07 03:57:10;;;;;;;4.88;2.75;;;12.40;99.90;;;;;;5116954;28;20528;-71
2023/07/07 03:59:37;;;;;;;5.50;2.80;;;12.40;99.90;;;;;;5116761;28;20116;-71
2023/07/07 04:02:03;;;;;;;5.82;2.50;;;12.40;99.90;;;;;;5098791;28;20027;-71
2023/07/07 04:04:29;;;;;;;6.53;2.67;;;12.40;99.90;;;;;;5116631;28;20024;-70
2023/07/07 04:06:58;;;;;;;3.88;2.53;;;12.40;99.90;;;;;;5116790;28;20024;-70
2023/07/07 04:09:24;;;;;;;5.00;2.92;;;12.40;99.90;;;;;;5116985;28;20080;-71
2023/07/07 04:11:50;;;;;;;4.55;2.35;;;12.40;99.90;;;;;;5116923;28;20031;-70
2023/07/07 04:14:17;;;;;;;7.25;2.55;;;12.40;99.90;;;;;;5116531;28;20023;-71
2023/07/07 04:16:43;;;;;;;4.93;2.70;;;12.30;99.90;;;;;;5098237;28;20027;-71
2023/07/07 04:19:08;;;;;;;4.88;2.60;;;12.30;99.90;;;;;;5116417;28;20027;-71
2023/07/07 04:21:34;;;;;;;4.22;2.58;;;12.20;99.90;;;;;;5116517;28;20023;-70
2023/07/07 04:24:01;;;;;;;4.35;2.50;;;12.20;99.90;;;;;;5117246;28;20030;-71
2023/07/07 04:26:29;;;;;;;4.40;2.50;;;12.20;99.90;;;;;;5116692;28;20024;-71
2023/07/07 04:28:57;;;;;;;5.70;2.80;;;12.20;99.90;;;;;;5116592;28;20049;-71
2023/07/07 04:31:24;;;;;;;5.57;3.03;;;12.20;99.90;;;;;;5116267;28;20027;-70
2023/07/07 04:33:50;;;;;;;9.70;3.58;;;12.20;99.90;;;;;;5116113;28;20024;-71
2023/07/07 04:36:16;;;;;;;5.40;2.83;;;12.20;99.90;;;;;;5116458;28;20039;-71
2023/07/07 04:38:44;;;;;;;4.28;2.55;;;12.10;99.90;;;;;;5115946;28;20042;-71
2023/07/07 04:41:13;;;;;;;4.68;2.75;;;12.10;99.90;;;;;;5116062;28;20023;-73
2023/07/07 04:43:41;;;;;;;5.43;3.17;;;12.10;99.90;;;;;;5115889;28;20016;-72
2023/07/07 04:46:10;;;;;;;4.55;2.78;;;12.10;99.90;;;;;;5097492;28;20028;-72
2023/07/07 04:48:36;;;;;;;5.85;3.00;;;12.20;99.90;;;;;;5115258;28;20027;-72
2023/07/07 04:51:06;;;;;;;4.97;2.58;;;12.20;99.90;;;;;;5114520;28;20114;-72
2023/07/07 04:53:32;;;;;;;5.00;2.80;;;12.20;99.90;;;;;;5115809;28;20024;-72
2023/07/07 04:55:59;;;;;;;5.47;2.72;;;12.20;99.90;;;;;;5114610;28;20035;-72
2023/07/07 04:58:26;;;;;;;5.50;2.78;;;12.20;99.90;;;;;;5114607;28;20038;-72
2023/07/07 05:01:03;;;;;;;5.55;3.17;;;12.30;99.90;;;;;;5115693;28;20034;-72
2023/07/07 05:03:29;;;;;;;5.60;3.15;;;12.20;99.90;;;;;;5115608;28;20091;-72
2023/07/07 05:05:56;;;;;;;5.32;2.88;;;12.20;99.90;;;;;;5115678;28;20074;-72
2023/07/07 05:08:22;;;;;;;5.95;2.97;;;12.20;99.90;;;;;;5115558;28;20023;-72
2023/07/07 05:10:48;;;;;;;5.35;2.80;;;12.20;99.90;;;;;;5115485;28;20470;-72
2023/07/07 05:13:14;;;;;;;4.57;2.83;;;12.20;99.90;;;;;;5097065;28;20038;-72
2023/07/07 05:15:40;;;;;;;5.90;3.35;;;12.20;99.90;;;;;;5115483;28;20036;-72
2023/07/07 05:18:07;;;;;;;6.45;2.72;;;12.20;99.90;;;;;;5115286;28;20055;-72
2023/07/07 05:20:33;;;;;;;5.78;2.63;;;12.20;99.90;;;;;;5115289;28;20422;-72
2023/07/07 05:22:58;;;;;;;5.53;3.40;;;12.20;99.90;;;;;;5115484;28;20133;-72
2023/07/07 05:25:24;;;;;;;5.65;3.20;;;12.20;99.90;;;;;;5115721;28;20039;-72
2023/07/07 05:27:50;;;;;;;6.35;3.30;;;12.20;99.90;;;;;;5115137;28;20023;-72
2023/07/07 05:30:16;;;;;;;8.30;3.90;;;12.20;99.90;;;;;;5097167;28;20042;-72
2023/07/07 05:32:41;;;;;;;6.57;3.50;;;12.20;99.90;;;;;;5115206;28;20040;-72
2023/07/07 05:35:07;;;;;;;6.43;3.30;;;12.20;99.90;;;;;;5115013;28;20034;-72
2023/07/07 05:37:33;;;;;;;5.82;3.85;;;12.20;99.90;;;;;;5096588;28;20024;-72
2023/07/07 05:39:58;;;;;;;7.15;3.63;;;12.30;99.90;;;;;;5114922;28;20031;-72
2023/07/07 05:42:24;;;;;;;8.05;3.85;;;12.30;99.90;;;;;;5114845;28;20031;-72
2023/07/07 05:44:51;;;;;;;5.32;3.30;;;12.40;99.90;;;;;;5114794;28;20027;-72
2023/07/07 05:47:16;;;;;;;5.95;3.65;;;12.50;99.90;;;;;;5096838;28;20381;-72
2023/07/07 05:49:42;;;;;;;6.20;3.60;;;12.50;99.90;;;;;;5114188;28;20042;-72
2023/07/07 05:52:08;;;;;;;6.13;3.40;;;12.60;99.90;;;;;;5114702;28;20036;-72
2023/07/07 05:54:34;;;;;;;5.70;3.35;;;12.60;99.90;;;;;;5114640;28;20051;-72
2023/07/07 05:57:01;;;;;;;6.82;3.60;;;12.70;99.90;;;;;;5114540;28;20043;-72
2023/07/07 05:59:28;;;;;;;6.22;3.60;;;12.80;99.90;;;;;;5114392;28;20051;-72
2023/07/07 06:01:54;;;;;;;5.32;3.28;;;12.80;99.90;;;;;;5114980;28;20028;-72
2023/07/07 06:04:20;;;;;;;6.55;3.83;;;12.90;99.90;;;;;;5114385;28;20026;-72
2023/07/07 06:06:45;;;;;;;6.80;3.63;;;13.00;99.90;;;;;;5114367;28;20065;-72
2023/07/07 06:09:11;;;;;;;8.90;3.67;;;13.10;99.90;;;;;;5114565;28;20062;-72
2023/07/07 06:11:37;;;;;;;5.22;3.45;;;13.10;99.90;;;;;;5114580;28;20023;-72
2023/07/07 06:14:02;;;;;;;6.38;3.17;;;13.20;99.90;;;;;;5096592;28;20031;-72
2023/07/07 06:16:28;;;;;;;5.72;3.53;;;13.30;99.90;;;;;;5114285;28;20031;-72
2023/07/07 06:18:54;;;;;;;5.75;3.13;;;13.40;99.90;;;;;;5095904;28;20035;-72
2023/07/07 06:21:19;;;;;;;7.07;3.60;;;13.40;99.90;;;;;;5114228;28;20030;-72
2023/07/07 06:23:45;;;;;;;7.60;3.95;;;13.50;99.90;;;;;;5095887;28;20122;-72
2023/07/07 06:26:10;;;;;;;7.05;3.58;;;13.60;99.90;;;;;;5114210;28;20088;-73
2023/07/07 06:28:36;;;;;;;7.32;4.30;;;13.60;99.90;;;;;;5096049;28;20023;-72
2023/07/07 06:31:02;;;;;;;6.53;3.95;;;13.70;99.90;;;;;;5113969;28;20042;-72
2023/07/07 06:33:27;;;;;;;6.85;3.63;;;13.80;99.90;;;;;;5095812;28;20024;-72
2023/07/07 06:35:53;;;;;;;7.78;4.38;;;13.90;99.90;;;;;;5114011;28;20077;-72
2023/07/07 06:38:19;;;;;;;7.78;4.10;;;14.00;99.90;;;;;;5113855;28;20028;-72
2023/07/07 06:40:47;;;;;;;7.13;4.10;;;14.10;99.90;;;;;;5078683;28;20081;-72
2023/07/07 06:43:15;;;;;;;8.85;3.92;;;14.20;99.90;;;;;;5113813;28;20020;-72
2023/07/07 06:45:40;;;;;;;8.02;4.20;;;14.30;99.90;;;;;;5113787;28;20083;-72
2023/07/07 06:48:06;;;;;;;6.88;3.70;;;14.40;99.90;;;;;;5114076;28;20032;-72
2023/07/07 06:50:36;;;;;;;6.97;3.40;;;14.50;99.90;;;;;;5095566;28;20492;-72
2023/07/07 06:53:02;;;;;;;8.10;4.13;;;14.50;99.90;;;;;;5114006;28;20023;-72
2023/07/07 06:55:28;;;;;;;6.03;3.45;;;14.60;99.90;;;;;;5113701;28;20031;-72
2023/07/07 06:57:54;;;;;;;8.65;4.57;;;14.70;99.90;;;;;;5113553;28;20217;-72
2023/07/07 07:00:21;;;;;;;7.63;4.38;;;14.80;99.90;;;;;;5113672;28;20099;-71
2023/07/07 07:02:46;;;;;;;8.82;4.90;;;14.90;99.90;;;;;;5116016;28;20020;-72
2023/07/07 07:05:12;;;;;;;8.30;4.90;;;15.00;99.90;;;;;;5118001;28;20027;-72
2023/07/07 07:07:38;;;;;;;6.80;4.85;;;15.10;99.90;;;;;;5099578;28;20024;-72
2023/07/07 07:10:05;;;;;;;8.07;5.07;;;15.20;99.90;;;;;;5099721;28;20495;-72
2023/07/07 07:12:31;;;;;;;8.15;5.10;;;15.40;99.90;;;;;;5118054;28;20043;-72
2023/07/07 07:14:57;;;;;;;9.43;6.13;;;15.50;99.90;;;;;;5117762;28;20470;-72
2023/07/07 07:17:24;;;;;;;7.78;5.75;;;15.60;99.90;;;;;;5117928;28;20019;-72
2023/07/07 07:19:50;;;;;;;12.15;6.88;;;15.70;99.90;;;;;;5117911;28;20051;-72
2023/07/07 07:22:16;;;;;;;9.85;6.15;;;15.80;99.90;;;;;;5117814;28;20377;-72
2023/07/07 07:24:42;;;;;;;9.80;5.63;;;15.90;99.90;;;;;;5117560;28;20020;-72
2023/07/07 07:27:08;;;;;;;10.93;6.00;;;16.10;99.90;;;;;;5117531;28;20388;-72
2023/07/07 07:29:35;;;;;;;9.13;6.30;;;16.30;99.90;;;;;;5117695;28;20027;-72
2023/07/07 07:32:01;;;;;;;8.93;5.65;;;16.40;99.90;;;;;;5117310;28;20047;-72
2023/07/07 07:34:28;;;;;;;9.60;5.82;;;16.60;99.90;;;;;;5117717;28;20027;-72
2023/07/07 07:36:55;;;;;;;8.13;5.40;;;16.60;99.90;;;;;;5117638;28;20019;-72
2023/07/07 07:39:21;;;;;;;9.50;5.30;;;16.80;99.90;;;;;;5117538;28;20034;-72
2023/07/07 07:41:50;;;;;;;10.30;5.53;;;16.90;99.90;;;;;;5117791;28;20020;-72
2023/07/07 07:44:16;;;;;;;7.85;4.93;;;17.00;99.90;;;;;;5117067;28;20023;-72
2023/07/07 07:46:44;;;;;;;8.55;5.25;;;17.20;99.90;;;;;;5117129;28;20024;-72
2023/07/07 07:49:09;;;;;;;10.10;5.10;;;17.30;99.90;;;;;;5117066;28;20028;-72
2023/07/07 07:51:39;;;;;;;7.63;4.57;;;17.40;99.90;;;;;;5117022;28;20508;-72
2023/07/07 07:54:07;;;;;;;10.07;4.85;;;17.60;99.90;;;;;;5116966;28;20031;-72
2023/07/07 07:56:34;;;;;;;8.30;4.57;;;17.70;99.90;;;;;;5098758;28;20051;-72
2023/07/07 07:59:00;;;;;;;9.02;4.80;;;17.90;99.90;;;;;;5116890;28;20019;-72
2023/07/07 08:01:26;;;;;;;7.10;4.05;;;18.10;99.90;;;;;;5116922;28;20106;-72
2023/07/07 08:03:52;;;;;;;7.57;4.28;;;18.20;99.90;;;;;;5116758;28;20020;-72
2023/07/07 08:06:18;;;;;;;7.38;3.85;;;18.40;99.90;;;;;;5117123;28;20020;-72
2023/07/07 08:08:44;;;;;;;6.93;4.30;;;18.50;99.90;;;;;;5102734;28;20047;-72
2023/07/07 08:11:17;;;;;;;6.50;3.90;;;18.60;99.90;;;;;;5094840;28;20099;-73
2023/07/07 08:13:43;;;;;;;7.30;4.00;;;18.80;99.90;;;;;;5093668;28;20440;-73
2023/07/07 08:16:10;;;;;;;6.82;4.20;;;19.00;99.90;;;;;;5076908;28;20032;-72
2023/07/07 08:18:37;;;;;;;6.55;3.90;;;19.10;99.90;;;;;;5096300;28;20082;-72
2023/07/07 08:21:03;;;;;;;6.93;4.22;;;19.30;99.90;;;;;;5096213;28;20028;-72
2023/07/07 08:23:29;;;;;;;7.55;4.13;;;19.40;99.90;;;;;;5096041;28;20071;-72
2023/07/07 08:25:54;;;;;;;6.53;4.03;;;19.50;99.90;;;;;;5096296;28;20434;-72
2023/07/07 08:28:20;;;;;;;5.70;3.50;;;19.60;99.90;;;;;;5096309;28;20054;-72
2023/07/07 08:30:46;;;;;;;5.70;3.70;;;19.70;99.90;;;;;;5078328;28;20047;-72
2023/07/07 08:33:12;;;;;;;5.82;3.58;;;19.80;99.90;;;;;;5096239;28;20513;-72
2023/07/07 08:35:38;;;;;;;5.43;3.20;;;20.00;99.90;;;;;;5095931;28;20031;-72
2023/07/07 08:38:04;;;;;;;5.78;3.10;;;20.20;99.90;;;;;;5077622;28;20078;-72
2023/07/07 08:40:45;;;;;;;5.70;3.45;;;20.30;99.90;;;;;;5096059;28;20032;-72
2023/07/07 08:43:11;;;;;;;6.23;3.80;;;20.40;99.90;;;;;;5095849;28;20035;-72
2023/07/07 08:45:43;;;;;;;5.78;3.67;;;20.40;99.90;;;;;;5095641;28;20022;-72
2023/07/07 08:48:20;;;;;;;6.55;3.47;;;20.50;99.90;;;;;;5095841;28;20487;-72
2023/07/07 08:50:59;;;;;;;6.30;3.58;;;20.60;99.90;;;;;;5095572;28;20031;-71
2023/07/07 08:53:47;;;;;;;6.38;3.75;;;20.80;99.90;;;;;;5095426;28;20028;-72
2023/07/07 08:56:30;;;;;;;6.03;3.72;;;20.90;99.90;;;;;;5096028;28;20024;-72
2023/07/07 08:59:24;;;;;;;7.10;3.30;;;21.10;99.90;;;;;;5095442;28;20024;-72
2023/07/07 09:02:03;;;;;;;6.32;3.70;;;21.20;99.90;;;;;;5096053;28;20451;-72
2023/07/07 09:05:00;;;;;;;6.13;3.63;;;21.40;99.90;;;;;;5097511;28;20099;-72
2023/07/07 09:07:38;;;;;;;6.45;3.70;;;21.50;99.90;;;;;;5097346;28;20024;-72
2023/07/07 09:10:31;;;;;;;6.53;3.67;;;21.60;99.90;;;;;;5096990;28;20115;-71
2023/07/07 09:13:03;;;;;;;5.68;3.15;;;21.70;99.90;;;;;;5097128;28;20030;-71
2023/07/07 09:15:35;;;;;;;6.25;3.47;;;21.90;99.90;;;;;;5096515;28;20019;-71
2023/07/07 09:18:14;;;;;;;6.65;3.72;;;22.00;99.90;;;;;;5096726;28;20028;-72
2023/07/07 09:20:42;;;;;;;7.07;4.10;;;22.10;99.90;;;;;;5096715;28;20020;-71
2023/07/07 09:23:15;;;;;;;5.03;3.15;;;22.20;99.90;;;;;;5096221;28;20028;-72
2023/07/07 09:25:55;;;;;;;4.97;3.22;;;22.40;98.90;;;;;;5095109;28;20012;-71
2023/07/07 09:28:21;;;;;;;6.55;3.25;;;22.50;98.80;;;;;;5077650;28;20024;-71
2023/07/07 09:30:53;;;;;;;5.63;3.13;;;22.60;97.60;;;;;;5096014;28;20040;-71
2023/07/07 09:33:21;;;;;;;8.80;4.00;;;22.80;96.10;;;;;;5096204;28;20032;-73
2023/07/07 09:36:29;;;;;;;7.90;3.95;;;22.90;96.00;;;;;;5095999;28;20478;-73
2023/07/07 09:39:21;;;;;;;5.63;3.72;;;23.00;97.80;;;;;;5054077;28;20044;-74
2023/07/07 09:42:08;;;;;;;7.60;3.60;;;23.00;98.90;;;;;;5095020;28;20063;-74
2023/07/07 09:44:39;;;;;;;5.30;3.70;;;23.20;97.40;;;;;;5095430;28;20036;-74
2023/07/07 09:47:14;;;;;;;5.20;3.53;;;23.30;95.30;;;;;;5095017;28;20056;-74
2023/07/07 09:49:42;;;;;;;5.10;3.53;;;23.50;96.20;;;;;;5095286;28;20090;-74
2023/07/07 09:52:36;;;;;;;6.45;3.67;;;23.80;96.60;;;;;;5095190;28;20021;-74
2023/07/07 09:55:07;;;;;;;7.32;4.00;;;23.90;95.50;;;;;;5094826;28;20016;-73
2023/07/07 09:57:45;;;;;;;6.40;3.95;;;24.10;95.30;;;;;;5094907;28;20012;-74
2023/07/07 10:00:17;;;;;;;6.93;4.20;;;24.30;91.80;;;;;;5076371;28;20024;-73
2023/07/07 10:02:45;;;;;;;6.78;4.35;;;24.30;92.00;;;;;;5094730;28;20027;-73
2023/07/07 10:05:13;;;;;;;8.00;4.55;;;24.40;88.20;;;;;;5094346;28;20027;-73
2023/07/07 10:07:40;;;;;;;6.55;4.47;;;24.40;87.30;;;;;;5094535;28;20020;-72
2023/07/07 10:10:13;;;;;;;7.03;4.72;;;24.50;87.90;;;;;;5094051;28;20023;-73
2023/07/07 10:12:40;;;;;;;10.98;4.93;;;24.70;89.00;;;;;;5094284;28;20021;-73
2023/07/07 10:15:36;;;;;;;7.43;4.60;;;24.80;86.10;;;;;;5093934;28;20489;-73
2023/07/07 10:18:28;;;;;;;7.57;4.70;;;24.90;83.00;;;;;;5094161;28;20024;-73
2023/07/07 10:20:57;;;;;;;7.60;4.80;;;25.00;83.00;;;;;;5090438;28;20102;-73
2023/07/07 10:23:26;;;;;;;8.50;4.85;;;25.00;80.10;;;;;;5094030;28;20027;-73
2023/07/07 10:25:52;;;;;;;7.95;4.85;;;25.10;76.60;;;;;;5094081;28;20017;-73
2023/07/07 10:28:20;;;;;;;8.50;4.95;;;25.10;76.50;;;;;;5093747;28;20035;-73
2023/07/07 10:30:47;;;;;;;8.93;5.15;;;25.10;76.30;;;;;;5093581;28;20043;-73
2023/07/07 10:33:16;;;;;;;8.82;5.20;;;25.10;77.40;;;;;;5093926;28;20125;-73
2023/07/07 10:35:41;;;;;;;9.23;5.07;;;25.10;79.70;;;;;;5093540;28;20020;-73
2023/07/07 10:38:09;;;;;;;10.82;5.22;;;25.20;75.70;;;;;;5093829;28;20492;-73
2023/07/07 10:40:36;;;;;;;8.90;5.10;;;25.30;73.60;;;;;;5093634;28;20036;-72
2023/07/07 10:43:04;;;;;;;9.43;5.65;;;25.40;74.90;;;;;;5093484;28;20478;-72
2023/07/07 10:45:29;;;;;;;8.52;5.57;;;25.50;73.40;;;;;;5093535;28;20478;-73
2023/07/07 10:47:55;;;;;;;9.23;5.32;;;25.60;76.70;;;;;;5093844;28;20082;-73
2023/07/07 10:50:25;;;;;;;10.07;5.68;;;25.80;76.30;;;;;;5093731;28;20024;-72
2023/07/07 10:53:16;;;;;;;8.48;5.80;;;26.00;73.50;;;;;;5093407;28;20023;-72
2023/07/07 10:56:01;;;;;;;8.88;5.53;;;26.10;73.50;;;;;;5094001;28;20016;-72
2023/07/07 10:58:33;;;;;;;7.47;5.30;;;26.30;71.30;;;;;;5093405;28;20080;-72
2023/07/07 11:01:20;;;;;;;8.20;5.53;;;26.40;69.00;;;;;;5093473;28;20073;-72
2023/07/07 11:04:10;;;;;;;8.27;5.57;;;26.40;67.90;;;;;;5074719;28;20016;-72
2023/07/07 11:07:14;;;;;;;8.25;5.47;;;26.50;70.10;;;;;;5091221;28;20661;-72
2023/07/07 11:09:52;;;;;;;9.55;6.07;;;26.50;66.50;;;;;;5009251;28;20039;-72
2023/07/07 11:12:32;;;;;;;13.40;6.68;;;26.60;70.30;;;;;;5010143;28;20022;-72
2023/07/07 11:15:10;;;;;;;10.15;5.75;;;26.70;63.00;;;;;;5063628;28;20036;-72
2023/07/07 11:17:51;;;;;;;9.85;6.13;;;26.60;62.00;;;;;;5092805;28;20051;-72
2023/07/07 11:20:26;;;;;;;8.40;5.55;;;26.70;64.90;;;;;;5093129;28;20031;-72
2023/07/07 11:23:10;;;;;;;10.93;6.15;;;26.80;65.40;;;;;;5093394;28;20129;-72
2023/07/07 11:25:57;;;;;;;11.25;6.00;;;27.00;62.50;;;;;;5094510;28;20482;-72
2023/07/07 11:28:37;;;;;;;10.00;6.03;;;27.10;64.60;;;;;;5093474;28;20032;-72
2023/07/07 11:31:24;;;;;;;8.68;6.25;;;27.20;63.40;;;;;;5093323;28;20393;-72
2023/07/07 11:34:08;;;;;;;9.65;5.88;;;27.40;64.80;;;;;;5093147;28;20028;-72
2023/07/07 11:36:34;;;;;;;9.27;5.75;;;27.50;66.80;;;;;;5093468;28;20380;-72
2023/07/07 11:38:59;;;;;;;11.68;5.93;;;27.60;63.60;;;;;;5093368;28;20104;-72
2023/07/07 11:41:52;;;;;;;8.55;5.90;;;27.60;63.00;;;;;;5093029;28;20024;-71
2023/07/07 11:44:56;;;;;;;8.80;6.28;;;27.60;61.60;;;;;;5093021;28;20024;-72
2023/07/07 11:47:30;;;;;;;9.05;6.03;;;27.70;62.70;;;;;;5092966;28;20040;-72
2023/07/07 11:50:21;;;;;;;10.27;6.65;;;27.70;59.70;;;;;;5096693;28;20028;-72
2023/07/07 11:53:04;;;;;;;8.48;6.20;;;27.80;61.20;;;;;;5096701;28;20020;-72
2023/07/07 11:55:36;;;;;;;11.70;6.65;;;27.90;59.60;;;;;;5079488;28;20039;-73
2023/07/07 11:58:22;;;;;;;10.65;6.50;;;28.00;61.90;;;;;;5096655;28;20113;-73
2023/07/07 12:00:59;;;;;;;10.52;6.63;;;28.10;58.40;;;;;;5096774;28;20431;-71
2023/07/07 12:03:43;;;;;;;11.75;7.72;;;28.10;61.20;;;;;;5096476;28;20028;-72
2023/07/07 12:06:20;;;;;;;;;;;28.30;59.20;;;;;;5096810;28;20024;-72
2023/07/07 12:09:09;;;;;;;;;;;28.40;56.80;;;;;;5097039;28;19999;-72
2023/07/07 12:11:38;;;;;;;;;;;28.40;55.60;;;;;;5085947;28;19908;-71
2023/07/07 12:14:20;;;;;;;;;;;28.30;55.40;;;;;;5096641;28;19904;-72
2023/07/07 12:16:46;;;;;;;;;;;28.20;55.90;;;;;;5097415;28;19911;-71
2023/07/07 12:19:16;;;;;;;;;;;28.30;62.40;;;;;;5096780;28;19915;-72
2023/07/07 12:21:41;;;;;;;;;;;28.50;57.80;;;;;;5078727;28;20282;-72
2023/07/07 12:24:25;;;;;;;;;;;28.70;59.10;;;;;;5096768;28;19904;-72
2023/07/07 12:26:54;;;;;;;;;;;28.90;58.60;;;;;;5096492;28;20007;-72
2023/07/07 12:29:20;;;;;;;;;;;29.10;57.60;;;;;;5096325;28;19904;-71
2023/07/07 12:31:47;;;;;;;;;;;29.10;54.00;;;;;;5096281;28;19912;-71
2023/07/07 12:34:48;;;;;;;;;;;29.10;55.20;;;;;;5096276;28;19908;-72
2023/07/07 12:37:15;;;;;;;;;;;29.10;52.80;;;;;;5014710;28;19905;-71
2023/07/07 12:39:57;;;;;;;;;;;29.10;53.80;;;;;;5079889;28;19978;-71
2023/07/07 12:42:25;;;;;;;;;;;28.90;51.20;;;;;;5096102;28;19953;-72
2023/07/07 12:44:51;;;;;;;;;;;28.80;50.50;;;;;;5095773;28;19908;-72
2023/07/07 12:47:30;;;;;;;;;;;28.80;52.60;;;;;;5095841;28;19916;-72
2023/07/07 12:50:00;;;;;;;;;;;28.90;50.20;;;;;;5096064;28;19915;-72
2023/07/07 12:52:29;;;;;;;;;;;28.90;50.70;;;;;;5077741;28;19911;-72
2023/07/07 12:55:03;;;;;;;;;;;29.00;51.90;;;;;;5096221;28;19908;-72
2023/07/07 12:57:28;;;;;;;;;;;29.00;50.50;;;;;;5096004;28;19904;-72
2023/07/07 13:00:14;;;;;;;;;;;29.10;55.00;;;;;;5095769;28;19923;-72
2023/07/07 13:02:55;;;;;;;;;;;29.20;48.90;;;;;;5095835;28;19926;-72
2023/07/07 13:05:21;;;;;;;;;;;29.20;50.00;;;;;;5077569;28;19904;-72
2023/07/07 13:07:58;;;;;;;;;;;29.40;54.80;;;;;;5095946;28;19911;-72
2023/07/07 13:10:33;;;;;;;;;;;29.60;50.70;;;;;;5096478;28;20239;-72